KYKN/YKN METAR and TAF weather

Enter ICAO airport designator
Station Type Date Time Source
KYKN METAR 2020/03/29 20:56 UTC NOAA

KYKN 292056Z AUTO 32012G17KT 10SM CLR 12/M07 A3003 RMK AO2 SLP188 T01221067 51008


Station Type Date Time Source
KYKN Decoded METAR 2020/03/29 20:56 UTC NOAA

Yankton, Chan Gurney Municipal Airport, SD, United States (KYKN) 42-55N 097-23W
Mar 29, 2020 - 04:56 PM EDT / 2020.03.29 2056 UTC
Wind: from the NW (320 degrees) at 14 MPH (12 KT) gusting to 20 MPH (17 KT):0
Visibility: 10 mile(s):0
Sky conditions: clear
Temperature: 54.0 F (12.2 C)
Dew Point: 19.9 F (-6.7 C)
Relative Humidity: 26%
Pressure (altimeter): 30.03 in. Hg (1016 hPa)
Pressure tendency: 0.02 inches (0.8 hPa) higher than three hours ago
ob: KYKN 292056Z AUTO 32012G17KT 10SM CLR 12/M07 A3003 RMK AO2 SLP188 T01221067 51008
cycle: 21

Station Type Date Time Source
KYKN TAF UTC NOAA

Error!

Example: see airport list